Time;durP1;ratioP1;P1;durP2;ratioP2;P2;SDS_P1;SDS_P2;PMS_P1;PMS_P2;Temp;Humidity;BMP_temperature;BMP_pressure;BME280_temperature;BME280_humidity;BME280_pressure;Samples;Min_cycle;Max_cycle;Signal;HPM_P1;HPM_P2
2021/09/14 00:03:17;;;;;;;5.85;5.35;;;;;;;19.20;61.35;100141.75;10296031;28;20066;-59
2021/09/14 00:08:18;;;;;;;6.00;5.32;;;;;;;19.21;61.33;100134.50;10295417;28;20085;-61
2021/09/14 00:13:20;;;;;;;5.57;5.07;;;;;;;19.18;61.71;100129.47;10294553;28;20074;-62
2021/09/14 00:18:21;;;;;;;6.80;5.70;;;;;;;19.13;61.64;100121.09;10295614;28;20108;-60
2021/09/14 00:23:23;;;;;;;6.32;5.72;;;;;;;19.07;61.78;100118.09;10292560;28;20132;-63
2021/09/14 00:28:24;;;;;;;6.10;5.50;;;;;;;19.02;62.14;100109.72;10286720;28;20051;-61
2021/09/14 00:33:25;;;;;;;5.43;5.00;;;;;;;18.99;62.44;100110.09;10293348;28;20128;-63
2021/09/14 00:38:28;;;;;;;6.57;5.72;;;;;;;18.93;62.62;100110.81;10285237;28;20580;-61
2021/09/14 00:43:30;;;;;;;6.38;5.75;;;;;;;18.85;62.75;100103.59;10292274;28;20109;-60
2021/09/14 00:48:31;;;;;;;6.22;5.72;;;;;;;18.82;63.12;100097.72;10289115;28;20128;-60
2021/09/14 00:53:33;;;;;;;6.68;5.90;;;;;;;18.72;63.23;100077.22;10293352;28;20074;-62
2021/09/14 00:58:34;;;;;;;6.32;5.72;;;;;;;18.65;63.53;100075.44;10287742;28;20149;-62
2021/09/14 01:03:36;;;;;;;6.50;5.90;;;;;;;18.67;63.61;100079.63;10288215;28;20054;-61
2021/09/14 01:08:40;;;;;;;7.15;6.50;;;;;;;18.62;63.65;100079.34;10265572;28;20146;-62
2021/09/14 01:13:41;;;;;;;7.00;6.40;;;;;;;18.57;63.98;100075.50;10246781;28;20081;-60
2021/09/14 01:18:43;;;;;;;6.68;6.07;;;;;;;18.54;64.06;100074.03;10246109;28;20501;-61
2021/09/14 01:23:44;;;;;;;6.63;6.10;;;;;;;18.50;64.29;100068.13;10251868;28;20135;-61
2021/09/14 01:28:46;;;;;;;6.93;6.22;;;;;;;18.46;64.21;100060.59;10286660;28;20062;-63
2021/09/14 01:33:49;;;;;;;7.93;7.05;;;;;;;18.37;64.64;100068.75;10274357;28;20441;-63
2021/09/14 01:38:50;;;;;;;6.93;6.32;;;;;;;18.29;65.06;100055.31;10245122;28;20063;-61
2021/09/14 01:43:52;;;;;;;7.05;6.45;;;;;;;18.30;64.71;100056.16;10251606;28;20110;-60
2021/09/14 01:48:53;;;;;;;7.22;6.63;;;;;;;18.33;64.70;100061.16;10242564;28;20137;-61
2021/09/14 01:53:56;;;;;;;7.03;6.32;;;;;;;18.27;64.95;100062.75;10247113;28;20456;-63
2021/09/14 01:58:57;;;;;;;7.97;7.28;;;;;;;18.21;64.91;100068.84;10281242;28;20066;-61
2021/09/14 02:04:15;;;;;;;7.43;6.82;;;;;;;18.18;65.37;100074.59;10286711;28;20121;-60
2021/09/14 02:41:21;;;;;;;6.85;6.25;;;;;;;17.76;66.70;100056.91;10286448;28;20069;-59
2021/09/14 03:02:10;;;;;;;;;;;;;;;17.69;67.12;100054.09;10287502;28;20070;-59
2021/09/14 03:07:11;;;;;;;7.28;6.68;;;;;;;17.68;67.06;100052.41;10286785;28;19961;-58
2021/09/14 03:12:13;;;;;;;7.47;6.78;;;;;;;17.69;66.80;100047.88;10284908;28;20112;-61
2021/09/14 03:17:14;;;;;;;7.97;7.20;;;;;;;17.63;67.22;100049.41;10296280;28;20058;-60
2021/09/14 03:22:16;;;;;;;9.45;7.05;;;;;;;17.54;67.43;100040.53;10300907;28;22092;-62
2021/09/14 03:27:17;;;;;;;8.02;7.22;;;;;;;17.60;67.26;100044.38;10272068;28;20153;-61
2021/09/14 03:32:19;;;;;;;8.13;7.38;;;;;;;17.58;67.54;100036.50;10255946;28;20074;-62
2021/09/14 03:37:20;;;;;;;7.03;6.32;;;;;;;17.57;67.18;100042.03;10255063;28;20551;-61
2021/09/14 03:42:21;;;;;;;7.95;7.07;;;;;;;17.54;67.32;100039.72;10252503;28;20150;-59
2021/09/14 03:47:23;;;;;;;6.82;6.22;;;;;;;17.47;67.69;100034.16;10250411;28;20043;-60
2021/09/14 03:52:24;;;;;;;7.88;7.18;;;;;;;17.48;67.54;100033.16;10250271;28;20133;-61
2021/09/14 03:57:26;;;;;;;9.13;7.57;;;;;;;17.41;67.67;100034.84;10248153;28;20078;-62
2021/09/14 04:02:37;;;;;;;7.90;7.10;;;;;;;17.40;67.91;100038.56;10262113;28;20138;-62
2021/09/14 04:12:58;;;;;;;8.73;6.95;;;;;;;17.46;67.60;100040.56;10264005;28;20124;-61
2021/09/14 04:18:00;;;;;;;6.97;6.38;;;;;;;17.44;67.82;100037.19;10263302;28;20051;-60
2021/09/14 04:23:02;;;;;;;7.82;7.13;;;;;;;17.43;67.55;100035.50;10256547;28;20686;-63
2021/09/14 04:28:03;;;;;;;6.70;6.10;;;;;;;17.39;68.16;100040.41;10255007;28;20476;-61
2021/09/14 04:33:05;;;;;;;7.15;6.55;;;;;;;17.45;67.98;100041.59;10282749;28;20168;-61
2021/09/14 04:38:10;;;;;;;7.05;6.45;;;;;;;17.35;68.00;100036.38;10294616;28;20068;-61
2021/09/14 04:43:12;;;;;;;7.28;6.55;;;;;;;17.35;68.01;100039.06;10293637;28;20042;-59
2021/09/14 04:48:13;;;;;;;7.32;6.63;;;;;;;17.37;68.26;100041.59;10297955;28;20257;-60
2021/09/14 04:53:15;;;;;;;7.50;6.72;;;;;;;17.36;68.40;100039.94;10297732;28;20451;-59
2021/09/14 04:58:17;;;;;;;7.82;7.13;;;;;;;17.29;68.46;100031.69;10289029;28;20180;-62
2021/09/14 05:03:18;;;;;;;7.25;6.65;;;;;;;17.36;67.90;100037.25;10283043;28;20066;-59
2021/09/14 05:08:20;;;;;;;8.02;7.30;;;;;;;17.37;67.94;100041.59;10297596;28;20126;-60
2021/09/14 05:13:21;;;;;;;8.38;7.57;;;;;;;17.33;67.99;100042.97;10285499;28;20398;-60
2021/09/14 05:18:24;;;;;;;7.13;6.53;;;;;;;17.35;68.00;100038.25;10291141;28;20140;-59
2021/09/14 05:23:33;;;;;;;8.30;7.38;;;;;;;17.30;68.19;100028.84;10288671;28;20051;-62
2021/09/14 05:28:35;;;;;;;7.45;6.75;;;;;;;17.29;68.22;100031.69;10289779;28;20074;-61
2021/09/14 05:33:39;;;;;;;7.85;7.15;;;;;;;17.32;67.92;100039.44;10290337;28;20078;-61
2021/09/14 05:38:41;;;;;;;7.78;6.97;;;;;;;17.29;67.78;100032.56;10289319;28;20500;-59
2021/09/14 05:43:42;;;;;;;8.52;7.72;;;;;;;17.37;67.85;100038.91;10285643;28;20051;-60
2021/09/14 05:48:44;;;;;;;8.85;8.00;;;;;;;17.35;67.91;100041.75;10289153;28;20047;-60
2021/09/14 05:53:46;;;;;;;9.02;8.18;;;;;;;17.41;67.59;100032.16;10295402;28;20381;-60
2021/09/14 05:58:47;;;;;;;8.70;8.00;;;;;;;17.42;67.41;100042.75;10297837;28;20165;-60
2021/09/14 06:03:48;;;;;;;8.68;7.82;;;;;;;17.49;67.36;100032.16;10288154;28;20129;-61
2021/09/14 06:08:50;;;;;;;7.95;7.20;;;;;;;17.54;67.39;100027.06;10286209;28;20520;-60
2021/09/14 06:13:52;;;;;;;7.90;7.20;;;;;;;17.74;66.98;100037.41;10275875;28;20082;-59
2021/09/14 06:18:53;;;;;;;7.93;7.22;;;;;;;17.87;66.90;100035.00;10279963;28;20193;-60
2021/09/14 06:23:54;;;;;;;8.10;7.40;;;;;;;18.05;66.19;100036.63;10280580;28;20058;-59
2021/09/14 06:28:56;;;;;;;8.05;7.25;;;;;;;18.19;65.79;100043.94;10282835;28;20148;-63
2021/09/14 06:33:57;;;;;;;8.25;6.85;;;;;;;18.33;65.16;100048.56;10280924;28;20054;-62
2021/09/14 06:39:00;;;;;;;7.03;6.32;;;;;;;18.43;65.63;100051.00;10281316;28;20058;-60
2021/09/14 06:44:02;;;;;;;7.88;7.07;;;;;;;18.46;65.73;100061.41;10247650;28;20054;-61
2021/09/14 06:49:03;;;;;;;7.30;6.60;;;;;;;18.59;65.07;100066.22;10241493;28;20139;-63
2021/09/14 06:54:05;;;;;;;6.85;6.25;;;;;;;18.80;64.46;100062.00;10241134;28;20070;-63
2021/09/14 06:59:06;;;;;;;7.43;6.72;;;;;;;18.99;63.69;100066.94;10239075;28;20154;-62
2021/09/14 07:04:08;;;;;;;6.85;5.65;;;;;;;19.12;63.29;100070.84;10258961;28;20388;-63
2021/09/14 07:09:09;;;;;;;6.20;5.60;;;;;;;19.41;62.25;100060.09;10279182;28;20046;-62
2021/09/14 07:14:11;;;;;;;6.50;5.60;;;;;;;19.69;61.50;100051.31;10280565;28;20125;-62
2021/09/14 07:19:13;;;;;;;6.68;4.68;;;;;;;20.05;60.58;100055.09;10279311;28;20129;-61
2021/09/14 07:24:14;;;;;;;6.25;4.82;;;;;;;20.24;59.61;100050.94;10280981;28;20346;-60
2021/09/14 07:29:15;;;;;;;5.38;4.68;;;;;;;20.48;58.99;100050.56;10288240;28;20120;-61
2021/09/14 07:34:17;;;;;;;8.25;5.10;;;;;;;20.83;57.93;100042.56;10285257;28;20574;-63
2021/09/14 07:39:18;;;;;;;4.28;3.97;;;;;;;21.06;57.56;100046.88;10290843;28;20063;-61
2021/09/14 07:44:20;;;;;;;4.60;4.20;;;;;;;21.32;57.43;100040.84;10281828;28;20070;-59
2021/09/14 07:49:21;;;;;;;5.03;4.57;;;;;;;21.47;57.01;100051.53;10279310;28;20141;-63
2021/09/14 07:54:23;;;;;;;5.05;4.60;;;;;;;21.58;55.55;100055.56;10279639;28;20451;-63
2021/09/14 07:59:24;;;;;;;4.93;3.72;;;;;;;21.82;55.14;100062.34;10279988;28;20197;-61
2021/09/14 08:04:26;;;;;;;4.25;3.85;;;;;;;22.01;55.17;100054.53;10283460;28;20074;-61
2021/09/14 08:09:29;;;;;;;4.13;3.67;;;;;;;22.20;53.85;100059.16;10286380;28;20235;-63
2021/09/14 08:14:31;;;;;;;5.10;4.32;;;;;;;22.35;53.71;100064.44;10286941;28;20062;-63
2021/09/14 08:19:33;;;;;;;6.03;4.55;;;;;;;22.28;54.04;100065.41;10286179;28;20531;-63
2021/09/14 08:24:34;;;;;;;4.95;4.45;;;;;;;22.32;54.15;100066.72;10286003;28;20128;-61
2021/09/14 08:29:36;;;;;;;4.07;3.70;;;;;;;22.55;53.88;100067.19;10286767;28;20553;-62
2021/09/14 08:34:37;;;;;;;6.13;4.50;;;;;;;22.91;52.75;100065.94;10298369;28;20129;-63
2021/09/14 08:39:39;;;;;;;5.28;4.43;;;;;;;23.26;52.60;100062.19;10258342;28;20784;-61
2021/09/14 08:44:42;;;;;;;5.22;4.78;;;;;;;23.45;51.61;100057.75;10284022;28;20126;-61
2021/09/14 08:49:47;;;;;;;4.72;4.28;;;;;;;23.58;50.85;100049.53;10281726;28;20050;-64
2021/09/14 08:54:48;;;;;;;5.30;4.80;;;;;;;23.73;50.31;100043.84;10279049;28;20067;-63
2021/09/14 08:59:50;;;;;;;5.22;4.72;;;;;;;23.99;49.99;100056.53;10280620;28;20441;-64
2021/09/14 09:05:02;;;;;;;5.15;4.65;;;;;;;24.15;49.70;100066.06;10280973;28;20151;-60
2021/09/14 09:10:15;;;;;;;6.18;4.45;;;;;;;24.78;48.15;100069.03;10272078;28;20047;-60
2021/09/14 09:15:22;;;;;;;6.70;5.30;;;;;;;25.03;47.10;100072.59;10247717;28;20078;-63
2021/09/14 09:20:23;;;;;;;4.70;4.30;;;;;;;25.14;48.08;100062.03;10268948;28;20066;-62
2021/09/14 09:25:25;;;;;;;5.25;4.68;;;;;;;25.12;48.21;100058.69;10284457;28;20054;-62
2021/09/14 09:30:33;;;;;;;7.47;5.03;;;;;;;24.87;48.50;100056.81;10281933;28;20057;-62
2021/09/14 09:35:37;;;;;;;4.97;4.57;;;;;;;24.77;48.31;100068.22;10281913;28;20058;-62
2021/09/14 09:40:42;;;;;;;5.22;4.72;;;;;;;24.80;48.77;100062.31;10276045;28;20105;-62
2021/09/14 09:45:46;;;;;;;6.00;4.65;;;;;;;25.34;47.89;100057.25;10283265;28;20133;-61
2021/09/14 09:50:48;;;;;;;5.55;4.47;;;;;;;25.54;47.72;100059.75;10281997;28;20111;-63
2021/09/14 09:55:50;;;;;;;6.13;5.30;;;;;;;26.31;45.86;100060.28;10283268;28;20046;-64
2021/09/14 10:00:57;;;;;;;5.85;5.25;;;;;;;26.86;44.67;100057.34;10281934;28;20148;-59
2021/09/14 10:06:08;;;;;;;7.63;4.93;;;;;;;28.30;40.96;100043.16;10277590;28;20054;-62
2021/09/14 10:11:11;;;;;;;5.65;5.10;;;;;;;30.65;36.41;100028.22;10281264;28;20084;-62
2021/09/14 10:16:22;;;;;;;5.72;4.20;;;;;;;33.25;32.13;100032.34;10269066;28;20590;-63
2021/09/14 10:21:24;;;;;;;5.55;4.93;;;;;;;33.82;29.78;100031.06;10282193;28;20069;-63
2021/09/14 10:26:33;;;;;;;;;;;;;;;32.75;32.41;100029.38;10281454;28;20408;-64
2021/09/14 10:31:34;;;;;;;4.78;4.28;;;;;;;31.99;33.47;100034.50;10271652;28;20020;-62
2021/09/14 10:36:40;;;;;;;6.63;4.80;;;;;;;31.97;33.50;100036.69;10280905;28;20531;-62
2021/09/14 10:41:41;;;;;;;4.88;4.40;;;;;;;34.92;28.94;100037.44;10273492;28;20203;-63
2021/09/14 10:46:45;;;;;;;6.05;3.60;;;;;;;38.80;24.74;100040.41;10277623;28;20101;-61
2021/09/14 10:51:56;;;;;;;5.53;3.85;;;;;;;40.86;21.69;100034.19;10266958;28;20688;-64
2021/09/14 10:57:00;;;;;;;5.57;3.60;;;;;;;42.18;19.59;100026.78;10276615;28;20157;-62
2021/09/14 11:02:03;;;;;;;4.78;3.10;;;;;;;43.04;18.71;100017.81;10252047;28;20050;-64
2021/09/14 11:07:11;;;;;;;3.67;3.28;;;;;;;43.94;18.01;100012.25;10261967;28;20164;-65
2021/09/14 11:12:20;;;;;;;4.65;3.22;;;;;;;44.18;17.25;99999.31;10268276;28;20065;-60
2021/09/14 11:17:23;;;;;;;4.18;3.25;;;;;;;44.55;17.10;99987.13;10259680;28;20050;-64
2021/09/14 11:22:36;;;;;;;3.55;2.78;;;;;;;46.22;15.98;99988.63;10239761;28;20055;-62
2021/09/14 11:27:37;;;;;;;4.55;2.65;;;;;;;46.24;15.66;99988.28;10247467;28;20163;-61
2021/09/14 11:32:39;;;;;;;4.47;2.78;;;;;;;45.95;15.91;99987.69;10279006;28;20069;-64
2021/09/14 11:37:41;;;;;;;5.57;2.50;;;;;;;45.22;16.25;99976.00;10258997;28;20066;-59
2021/09/14 11:43:15;;;;;;;3.80;2.80;;;;;;;44.34;16.75;99976.13;10287838;28;20456;-60
2021/09/14 11:48:20;;;;;;;3.47;2.20;;;;;;;45.48;16.36;99978.25;10282588;28;20785;-59
2021/09/14 11:53:22;;;;;;;3.53;2.35;;;;;;;45.68;16.14;99981.88;10262518;28;20090;-59
2021/09/14 11:58:34;;;;;;;3.33;2.20;;;;;;;45.50;16.45;99981.47;10262484;28;20043;-60
2021/09/14 12:03:44;;;;;;;4.30;2.60;;;;;;;45.09;16.28;99968.88;10245156;28;21208;-60
2021/09/14 12:08:46;;;;;;;3.83;3.13;;;;;;;46.08;15.53;99982.72;10256875;28;20043;-61
2021/09/14 12:13:47;;;;;;;4.03;2.60;;;;;;;45.68;16.13;99983.88;10248495;28;20146;-60
2021/09/14 12:18:48;;;;;;;3.55;2.40;;;;;;;45.98;15.54;99978.50;10247464;28;20122;-63
2021/09/14 12:23:51;;;;;;;3.95;2.40;;;;;;;47.85;14.57;99974.38;10249119;28;20169;-62
2021/09/14 12:28:54;;;;;;;4.28;2.22;;;;;;;47.91;14.48;99968.00;10255121;28;20133;-62
2021/09/14 12:33:56;;;;;;;2.30;1.88;;;;;;;47.44;14.54;99960.94;10269096;28;20070;-61
2021/09/14 12:38:57;;;;;;;3.30;2.30;;;;;;;47.63;14.18;99954.34;10265991;28;20124;-62
2021/09/14 12:43:59;;;;;;;2.03;1.67;;;;;;;48.70;13.68;99945.44;10248005;28;20043;-59
2021/09/14 12:49:01;;;;;;;4.38;2.15;;;;;;;49.51;12.86;99946.41;10266961;28;20520;-64
2021/09/14 12:54:03;;;;;;;3.50;2.10;;;;;;;49.80;12.72;99942.91;10258635;28;20281;-61
2021/09/14 12:59:05;;;;;;;6.32;2.15;;;;;;;49.01;13.20;99937.63;10253403;28;20055;-61
2021/09/14 13:04:06;;;;;;;1.83;1.73;;;;;;;48.60;13.89;99937.69;10243827;28;20106;-61
2021/09/14 13:09:07;;;;;;;3.55;2.05;;;;;;;47.90;13.91;99943.03;10239077;28;20146;-62
2021/09/14 13:19:29;;;;;;;2.22;2.03;;;;;;;41.27;20.12;99929.47;10266810;28;20054;-62
2021/09/14 13:24:31;;;;;;;2.42;2.22;;;;;;;38.45;23.25;99928.13;10250493;28;20866;-61
2021/09/14 13:29:32;;;;;;;2.45;2.05;;;;;;;36.47;25.52;99926.31;10235742;28;20075;-60
2021/09/14 13:34:33;;;;;;;4.53;1.80;;;;;;;35.01;28.10;99923.16;10275579;28;20058;-61
2021/09/14 13:39:35;;;;;;;2.92;2.15;;;;;;;34.30;29.06;99924.72;10257097;28;20061;-63
2021/09/14 13:49:38;;;;;;;3.28;1.95;;;;;;;33.11;30.62;99917.09;10281045;28;20152;-61
2021/09/14 13:54:40;;;;;;;4.15;2.10;;;;;;;32.51;31.32;99922.47;10281528;28;20498;-60
2021/09/14 13:59:42;;;;;;;3.55;1.98;;;;;;;32.03;31.71;99931.00;10282791;28;20073;-65
2021/09/14 14:04:43;;;;;;;2.58;2.00;;;;;;;31.59;32.36;99927.91;10281281;28;20381;-64
2021/09/14 14:09:45;;;;;;;;;;;;;;;31.23;33.40;99928.59;10281091;28;21641;-64
2021/09/14 14:14:46;;;;;;;2.60;2.13;;;;;;;30.97;34.18;99924.88;10280939;28;19926;-62
2021/09/14 14:19:48;;;;;;;2.60;2.40;;;;;;;30.86;35.01;99910.25;10280838;28;20190;-64
2021/09/14 14:24:49;;;;;;;2.75;2.55;;;;;;;30.53;36.08;99912.25;10281525;28;20057;-62
2021/09/14 14:29:55;;;;;;;3.97;2.97;;;;;;;30.11;36.98;99910.25;10281389;28;20133;-64
2021/09/14 14:34:57;;;;;;;5.20;2.85;;;;;;;29.85;37.06;99920.19;10263808;28;20147;-64
2021/09/14 14:39:58;;;;;;;4.97;2.78;;;;;;;29.74;38.00;99924.69;10241599;28;20176;-64
2021/09/14 14:45:00;;;;;;;4.80;3.20;;;;;;;29.64;37.88;99922.69;10241009;28;20138;-63
2021/09/14 14:50:01;;;;;;;3.87;2.90;;;;;;;29.38;38.39;99921.56;10241561;28;20186;-62
2021/09/14 14:55:03;;;;;;;5.70;2.85;;;;;;;29.25;38.52;99918.13;10241652;28;20090;-61
2021/09/14 15:00:13;;;;;;;4.95;3.13;;;;;;;29.07;37.97;99921.19;10257712;28;20066;-62
2021/09/14 15:05:15;;;;;;;3.35;3.05;;;;;;;29.05;38.09;99915.09;10239674;28;20118;-64
2021/09/14 15:10:17;;;;;;;3.33;2.93;;;;;;;28.98;38.01;99911.75;10239568;28;20149;-62
2021/09/14 15:15:18;;;;;;;3.35;3.05;;;;;;;28.79;39.04;99906.56;10255070;28;20054;-62
2021/09/14 15:20:20;;;;;;;3.23;2.90;;;;;;;28.83;39.01;99915.09;10252828;28;20082;-62
2021/09/14 15:25:21;;;;;;;3.70;3.33;;;;;;;28.77;39.28;99916.13;10244533;28;20348;-64
2021/09/14 15:30:45;;;;;;;3.50;3.20;;;;;;;28.50;39.96;99923.09;10266605;28;20193;-64
2021/09/14 15:35:48;;;;;;;4.93;3.45;;;;;;;28.35;40.51;99920.13;10263155;28;20133;-65
2021/09/14 15:40:52;;;;;;;3.72;3.20;;;;;;;28.28;40.73;99914.78;10246338;28;20130;-63
2021/09/14 15:45:54;;;;;;;3.97;3.58;;;;;;;28.40;40.55;99917.44;10254075;28;20137;-63
2021/09/14 15:50:55;;;;;;;4.47;4.10;;;;;;;28.37;40.69;99920.69;10262798;28;20460;-62
2021/09/14 15:56:01;;;;;;;5.70;4.30;;;;;;;28.28;41.20;99905.75;10280190;28;20063;-63
2021/09/14 16:01:02;;;;;;;5.80;4.10;;;;;;;28.02;41.60;99905.34;10279691;28;20046;-63
2021/09/14 16:06:04;;;;;;;4.73;4.33;;;;;;;27.72;41.63;99900.97;10277327;28;20658;-64
2021/09/14 16:11:08;;;;;;;3.92;3.63;;;;;;;27.59;42.44;99901.25;10254740;28;20058;-65
2021/09/14 16:16:10;;;;;;;3.70;3.28;;;;;;;27.49;42.74;99901.91;10253888;28;20264;-63
2021/09/14 16:21:12;;;;;;;4.30;3.93;;;;;;;27.36;42.87;99888.53;10252541;28;20134;-63
2021/09/14 16:26:14;;;;;;;5.50;4.18;;;;;;;27.30;43.51;99904.78;10276171;28;20348;-63
2021/09/14 16:31:15;;;;;;;6.20;4.63;;;;;;;27.21;43.63;99897.22;10293624;28;20043;-63
2021/09/14 16:36:17;;;;;;;4.40;3.80;;;;;;;27.14;44.27;99886.41;10283913;28;20412;-61
2021/09/14 16:41:19;;;;;;;4.25;3.63;;;;;;;27.04;44.51;99891.66;10271345;28;20058;-64
2021/09/14 16:46:20;;;;;;;4.03;3.72;;;;;;;26.95;45.06;99891.25;10266465;28;20054;-64
2021/09/14 16:51:22;;;;;;;5.20;4.32;;;;;;;26.82;44.96;99897.78;10283847;28;20211;-61
2021/09/14 16:56:25;;;;;;;5.17;4.13;;;;;;;26.70;45.94;99894.25;10276675;28;20101;-63
2021/09/14 17:01:27;;;;;;;6.43;4.18;;;;;;;26.62;45.72;99895.41;10265450;28;20050;-63
2021/09/14 17:06:29;;;;;;;4.95;4.47;;;;;;;26.49;46.60;99891.00;10259090;28;20042;-63
2021/09/14 17:11:31;;;;;;;5.85;4.40;;;;;;;26.42;46.74;99882.09;10268621;28;20082;-61
2021/09/14 17:16:32;;;;;;;5.50;4.20;;;;;;;26.29;46.46;99891.38;10267339;28;20144;-63
2021/09/14 17:21:34;;;;;;;4.88;4.47;;;;;;;26.18;46.80;99893.03;10262475;28;20306;-62
2021/09/14 17:26:35;;;;;;;4.28;3.97;;;;;;;26.17;47.78;99890.53;10257314;28;20159;-61
2021/09/14 17:31:37;;;;;;;5.90;5.30;;;;;;;26.05;48.04;99879.59;10264800;28;20128;-62
2021/09/14 17:36:38;;;;;;;6.68;5.28;;;;;;;26.04;48.22;99880.66;10266433;28;20109;-63
2021/09/14 17:41:40;;;;;;;6.18;4.90;;;;;;;25.95;48.62;99880.13;10282210;28;20073;-62
2021/09/14 17:46:41;;;;;;;5.60;5.07;;;;;;;25.86;49.04;99874.19;10283587;28;20578;-64
2021/09/14 17:51:43;;;;;;;7.15;5.65;;;;;;;25.81;49.31;99871.34;10281249;28;20114;-62
2021/09/14 17:56:44;;;;;;;6.05;5.45;;;;;;;25.77;49.76;99881.03;10281031;28;20141;-57
2021/09/14 18:01:46;;;;;;;5.78;5.28;;;;;;;25.74;50.47;99886.94;10281316;28;20050;-58
2021/09/14 18:06:47;;;;;;;6.70;5.13;;;;;;;25.65;50.41;99872.00;10280564;28;20088;-57
2021/09/14 18:11:49;;;;;;;6.10;5.60;;;;;;;25.60;51.13;99878.16;10280270;28;20415;-59
2021/09/14 18:16:50;;;;;;;7.18;6.47;;;;;;;25.49;51.22;99868.03;10274715;28;20145;-58
2021/09/14 18:21:52;;;;;;;7.45;6.65;;;;;;;25.43;51.93;99866.22;10261701;28;21906;-56
2021/09/14 18:26:53;;;;;;;8.23;6.40;;;;;;;25.38;52.23;99875.91;10244335;28;20058;-60
2021/09/14 18:31:55;;;;;;;6.70;5.57;;;;;;;25.34;53.02;99872.00;10250587;28;20166;-59
2021/09/14 18:36:56;;;;;;;8.30;6.45;;;;;;;25.28;52.28;99877.50;10257179;28;20058;-57
2021/09/14 18:42:00;;;;;;;7.20;6.50;;;;;;;25.22;53.40;99884.69;10256593;28;20174;-58
2021/09/14 18:47:02;;;;;;;8.30;6.70;;;;;;;25.10;53.72;99872.91;10253039;28;20104;-59
2021/09/14 18:52:04;;;;;;;10.52;7.20;;;;;;;25.04;54.47;99866.47;10263974;28;20570;-58
2021/09/14 18:57:06;;;;;;;7.80;6.93;;;;;;;24.98;54.56;99879.13;10254195;28;20213;-61
2021/09/14 19:02:07;;;;;;;7.10;6.40;;;;;;;24.87;55.00;99886.16;10255990;28;20076;-56
2021/09/14 19:07:09;;;;;;;9.25;6.82;;;;;;;24.84;55.68;99877.63;10239568;28;20659;-57
2021/09/14 19:12:11;;;;;;;6.60;6.00;;;;;;;24.77;55.55;99871.41;10246369;28;20114;-57
2021/09/14 19:17:12;;;;;;;7.75;6.78;;;;;;;24.81;55.86;99878.88;10236701;28;21239;-58
2021/09/14 19:22:14;;;;;;;8.13;7.32;;;;;;;24.74;55.96;99882.75;10250730;28;20133;-58
2021/09/14 19:27:15;;;;;;;8.10;7.32;;;;;;;24.69;56.45;99880.72;10259372;28;20054;-56
2021/09/14 19:32:17;;;;;;;7.00;6.30;;;;;;;24.66;56.67;99881.16;10271122;28;20062;-56
2021/09/14 19:37:18;;;;;;;8.13;7.28;;;;;;;24.60;57.63;99866.56;10258686;28;20054;-55
2021/09/14 19:42:20;;;;;;;8.10;7.20;;;;;;;24.57;57.15;99872.41;10258454;28;20054;-59
2021/09/14 19:47:21;;;;;;;7.05;6.40;;;;;;;24.52;57.24;99875.00;10253379;28;20185;-56
2021/09/14 19:52:23;;;;;;;8.30;7.25;;;;;;;24.50;57.87;99868.94;10274328;28;20501;-57
2021/09/14 19:57:25;;;;;;;7.88;7.00;;;;;;;24.46;57.70;99867.72;10273242;28;20129;-56
2021/09/14 20:02:27;;;;;;;7.70;6.88;;;;;;;24.46;57.67;99886.78;10283910;28;20121;-58
2021/09/14 20:07:28;;;;;;;8.63;6.80;;;;;;;24.44;57.74;99886.16;10284238;28;20132;-58
2021/09/14 20:12:30;;;;;;;8.48;7.65;;;;;;;24.41;58.04;99895.59;10284225;28;20081;-58
2021/09/14 20:17:32;;;;;;;8.55;7.03;;;;;;;24.40;58.65;99901.28;10284505;28;20110;-58
2021/09/14 20:22:33;;;;;;;7.90;7.10;;;;;;;24.35;58.77;99913.66;10281991;28;20089;-61
2021/09/14 20:27:36;;;;;;;8.60;7.53;;;;;;;24.31;59.09;99906.97;10280361;28;20061;-57
2021/09/14 20:32:41;;;;;;;8.40;7.60;;;;;;;24.28;59.43;99902.00;10274468;28;20776;-58
2021/09/14 20:37:42;;;;;;;9.95;8.25;;;;;;;24.17;59.54;99905.44;10278052;28;20495;-58
2021/09/14 20:42:52;;;;;;;7.97;7.18;;;;;;;24.08;59.89;99883.13;10282115;28;20132;-57
2021/09/14 20:47:56;;;;;;;8.88;7.97;;;;;;;24.12;60.57;99897.09;10282173;28;20117;-56
2021/09/14 20:52:58;;;;;;;14.60;8.77;;;;;;;24.03;60.37;99872.06;10281636;28;20133;-59
2021/09/14 20:57:59;;;;;;;8.63;7.68;;;;;;;23.96;60.57;99887.59;10241126;28;20154;-58
2021/09/14 21:03:00;;;;;;;8.68;7.88;;;;;;;23.91;60.88;99901.84;10259916;28;20082;-57
2021/09/14 21:08:02;;;;;;;11.05;9.60;;;;;;;23.82;61.69;99895.84;10257858;28;20062;-62
2021/09/14 21:13:04;;;;;;;7.93;7.22;;;;;;;23.77;61.95;99892.09;10292231;28;20058;-64
2021/09/14 21:18:05;;;;;;;8.98;8.13;;;;;;;23.70;62.29;99900.28;10268986;28;20523;-62
2021/09/14 21:23:07;;;;;;;10.80;7.70;;;;;;;23.63;63.17;99905.78;10289564;28;20143;-62
2021/09/14 21:28:08;;;;;;;9.43;7.68;;;;;;;23.58;63.33;99902.84;10285738;28;20066;-63
2021/09/14 21:33:09;;;;;;;8.32;7.50;;;;;;;23.56;64.04;99904.97;10292943;28;20051;-62
2021/09/14 21:38:11;;;;;;;8.40;7.70;;;;;;;23.54;64.00;99907.09;10288600;28;20460;-64
2021/09/14 21:43:14;;;;;;;;;;;;;;;23.51;64.50;99893.94;10284312;28;20050;-63
2021/09/14 21:48:15;;;;;;;8.82;7.85;;;;;;;23.45;64.65;99895.63;10289439;28;20461;-62
2021/09/14 21:53:17;;;;;;;8.65;7.85;;;;;;;23.39;64.64;99890.22;10289224;28;20235;-61
2021/09/14 21:58:18;;;;;;;8.38;7.50;;;;;;;23.33;64.87;99888.38;10288295;28;20202;-62
2021/09/14 22:03:20;;;;;;;8.77;7.95;;;;;;;23.22;65.23;99885.28;10284461;28;20101;-62
2021/09/14 22:08:22;;;;;;;8.75;6.82;;;;;;;23.22;64.94;99882.56;10277718;28;20043;-64
2021/09/14 22:13:23;;;;;;;8.10;7.38;;;;;;;23.21;65.52;99889.06;10286005;28;20053;-63
2021/09/14 22:18:25;;;;;;;8.85;8.15;;;;;;;23.20;65.97;99892.81;10281535;28;20074;-62
2021/09/14 22:23:26;;;;;;;8.30;7.70;;;;;;;23.17;66.19;99895.97;10285106;28;20046;-63
2021/09/14 22:28:28;;;;;;;7.85;7.03;;;;;;;23.13;66.97;99886.56;10279596;28;20042;-63
2021/09/14 22:33:29;;;;;;;8.13;7.38;;;;;;;23.05;67.43;99884.09;10295594;28;20062;-61
2021/09/14 22:38:31;;;;;;;7.95;7.25;;;;;;;22.97;67.87;99879.72;10291905;28;20137;-62
2021/09/14 22:43:32;;;;;;;8.77;7.93;;;;;;;22.90;68.34;99879.72;10290916;28;20074;-63
2021/09/14 22:48:36;;;;;;;7.75;7.10;;;;;;;22.74;68.78;99878.34;10289440;28;20080;-61
2021/09/14 22:53:38;;;;;;;10.27;7.63;;;;;;;22.75;69.41;99871.84;10279429;28;20510;-63
2021/09/14 22:58:39;;;;;;;8.45;7.75;;;;;;;22.72;69.29;99868.72;10248707;28;20071;-61
2021/09/14 23:03:41;;;;;;;8.85;8.02;;;;;;;22.65;69.83;99871.44;10250214;28;20051;-61
2021/09/14 23:08:42;;;;;;;8.25;7.47;;;;;;;22.59;70.06;99872.31;10250616;28;20051;-62
2021/09/14 23:13:43;;;;;;;8.50;7.75;;;;;;;22.58;70.60;99871.47;10251391;28;20058;-62
2021/09/14 23:18:45;;;;;;;8.73;7.78;;;;;;;22.52;70.69;99864.19;10252085;28;20593;-62
2021/09/14 23:23:46;;;;;;;9.43;8.30;;;;;;;22.52;70.97;99856.06;10250618;28;20078;-62
2021/09/14 23:28:48;;;;;;;9.48;8.23;;;;;;;22.47;71.40;99858.53;10259561;28;20086;-61
2021/09/14 23:33:52;;;;;;;8.90;8.13;;;;;;;22.42;71.18;99851.06;10296331;28;20058;-62
2021/09/14 23:38:53;;;;;;;8.55;7.85;;;;;;;22.37;71.99;99850.03;10300236;28;20046;-62
2021/09/14 23:43:55;;;;;;;8.13;7.53;;;;;;;22.36;71.94;99845.66;10302921;28;20058;-64
2021/09/14 23:48:56;;;;;;;9.25;8.32;;;;;;;22.34;72.09;99839.59;10303205;28;20604;-62
2021/09/14 23:53:58;;;;;;;8.70;8.00;;;;;;;22.31;72.67;99831.84;10288972;28;20642;-61
2021/09/14 23:58:59;;;;;;;9.25;8.43;;;;;;;22.24;73.19;99837.28;10301286;28;20116;-60
